KGRK/GRK METAR and TAF weather

Enter ICAO airport designator
Station Type Date Time Source
KGRK METAR 2019/08/24 22:28 UTC NOAA

KGRK 242228Z AUTO 31003KT 3SM RA BR OVC065 24/22 A2991 RMK AO2 VIS 2 1/4 RWY15 SLP119


Station Type Date Time Source
KGRK Decoded METAR 2019/08/24 22:28 UTC NOAA

Station name not available
Aug 24, 2019 - 06:28 PM EDT / 2019.08.24 2228 UTC
Wind: from the NW (310 degrees) at 3 MPH (3 KT):0
Visibility: 3 mile(s):0
Sky conditions: overcast
Weather: rain; mist
Temperature: 75 F (24 C)
Dew Point: 71 F (22 C)
Relative Humidity: 88%
Pressure (altimeter): 29.91 in. Hg (1012 hPa)
ob: KGRK 242228Z AUTO 31003KT 3SM RA BR OVC065 24/22 A2991 RMK AO2 VIS 2 1/4 RWY15 SLP119
cycle: 22

Station Type Date Time Source
KGRK TAF 2019/08/24 22:19 UTC NOAA

TAF
AMD KGRK 242200Z 2422/2522 35010G15KT 8000 -SHRA VCTS SCT060CB BKN100 QNH2988INS
TEMPO 2422/2502 VRB10G20KT 1600 +TSRA BKN040CB BKN070
BECMG 2501/2502 VRB06KT 9999 NSW FEW030 QNH2990INS
TEMPO 2508/2512 BKN020
BECMG 2514/2515 18012KT 9999 FEW045 QNH2975INS TX32/2521Z TN24/2512Z

Example: see airport list